sensor_id;sensor_type;location;lat;lon;timestamp;P1;durP1;ratioP1;P2;durP2;ratioP2
8066;SDS011;4076;48.076;9.118;2023-04-08T00:00:57;6.67;;;3.60;;
8066;SDS011;4076;48.076;9.118;2023-04-08T00:03:22;6.80;;;3.87;;
8066;SDS011;4076;48.076;9.118;2023-04-08T00:05:48;4.67;;;2.90;;
8066;SDS011;4076;48.076;9.118;2023-04-08T00:08:13;6.23;;;4.00;;
8066;SDS011;4076;48.076;9.118;2023-04-08T00:10:39;5.73;;;3.20;;
8066;SDS011;4076;48.076;9.118;2023-04-08T00:13:05;5.20;;;3.43;;
8066;SDS011;4076;48.076;9.118;2023-04-08T00:15:30;5.40;;;2.80;;
8066;SDS011;4076;48.076;9.118;2023-04-08T00:17:56;7.77;;;3.83;;
8066;SDS011;4076;48.076;9.118;2023-04-08T00:20:22;4.90;;;2.63;;
8066;SDS011;4076;48.076;9.118;2023-04-08T00:22:48;4.93;;;2.40;;
8066;SDS011;4076;48.076;9.118;2023-04-08T00:25:14;5.30;;;2.90;;
8066;SDS011;4076;48.076;9.118;2023-04-08T00:27:39;4.07;;;2.07;;
8066;SDS011;4076;48.076;9.118;2023-04-08T00:30:05;4.80;;;3.20;;
8066;SDS011;4076;48.076;9.118;2023-04-08T00:32:31;5.50;;;3.70;;
8066;SDS011;4076;48.076;9.118;2023-04-08T00:34:57;7.57;;;4.83;;
8066;SDS011;4076;48.076;9.118;2023-04-08T00:37:23;6.77;;;3.83;;
8066;SDS011;4076;48.076;9.118;2023-04-08T00:39:49;5.50;;;3.40;;
8066;SDS011;4076;48.076;9.118;2023-04-08T00:42:15;6.03;;;4.13;;
8066;SDS011;4076;48.076;9.118;2023-04-08T00:44:41;7.07;;;4.00;;
8066;SDS011;4076;48.076;9.118;2023-04-08T00:47:07;6.83;;;4.10;;
8066;SDS011;4076;48.076;9.118;2023-04-08T00:49:37;6.20;;;3.63;;
8066;SDS011;4076;48.076;9.118;2023-04-08T00:52:02;4.50;;;3.10;;
8066;SDS011;4076;48.076;9.118;2023-04-08T00:54:29;6.27;;;3.80;;
8066;SDS011;4076;48.076;9.118;2023-04-08T00:56:55;8.00;;;5.17;;
8066;SDS011;4076;48.076;9.118;2023-04-08T00:59:23;6.00;;;3.93;;
8066;SDS011;4076;48.076;9.118;2023-04-08T01:01:53;6.40;;;4.40;;
8066;SDS011;4076;48.076;9.118;2023-04-08T01:07:08;6.83;;;3.20;;
8066;SDS011;4076;48.076;9.118;2023-04-08T01:09:43;6.00;;;4.10;;
8066;SDS011;4076;48.076;9.118;2023-04-08T01:12:12;8.50;;;4.77;;
8066;SDS011;4076;48.076;9.118;2023-04-08T01:14:44;6.30;;;3.73;;
8066;SDS011;4076;48.076;9.118;2023-04-08T01:17:11;6.67;;;3.20;;
8066;SDS011;4076;48.076;9.118;2023-04-08T01:19:38;5.13;;;3.60;;
8066;SDS011;4076;48.076;9.118;2023-04-08T01:24:40;11.10;;;6.20;;
8066;SDS011;4076;48.076;9.118;2023-04-08T01:27:08;10.37;;;5.70;;
8066;SDS011;4076;48.076;9.118;2023-04-08T01:29:35;9.43;;;6.00;;
8066;SDS011;4076;48.076;9.118;2023-04-08T01:32:01;7.80;;;4.93;;
8066;SDS011;4076;48.076;9.118;2023-04-08T01:34:27;7.80;;;4.23;;
8066;SDS011;4076;48.076;9.118;2023-04-08T01:36:54;7.50;;;4.57;;
8066;SDS011;4076;48.076;9.118;2023-04-08T01:39:22;8.13;;;5.90;;
8066;SDS011;4076;48.076;9.118;2023-04-08T01:41:49;8.07;;;5.00;;
8066;SDS011;4076;48.076;9.118;2023-04-08T01:44:18;5.97;;;4.13;;
8066;SDS011;4076;48.076;9.118;2023-04-08T01:46:46;10.13;;;6.17;;
8066;SDS011;4076;48.076;9.118;2023-04-08T01:49:13;6.90;;;4.00;;
8066;SDS011;4076;48.076;9.118;2023-04-08T01:51:42;8.90;;;5.00;;
8066;SDS011;4076;48.076;9.118;2023-04-08T01:54:09;8.03;;;4.30;;
8066;SDS011;4076;48.076;9.118;2023-04-08T01:56:35;9.27;;;4.73;;
8066;SDS011;4076;48.076;9.118;2023-04-08T01:59:05;7.47;;;3.57;;
8066;SDS011;4076;48.076;9.118;2023-04-08T02:01:34;7.60;;;4.87;;
8066;SDS011;4076;48.076;9.118;2023-04-08T02:04:01;7.00;;;4.40;;
8066;SDS011;4076;48.076;9.118;2023-04-08T02:06:27;6.00;;;4.23;;
8066;SDS011;4076;48.076;9.118;2023-04-08T02:08:55;8.97;;;5.73;;
8066;SDS011;4076;48.076;9.118;2023-04-08T02:11:21;10.50;;;5.90;;
8066;SDS011;4076;48.076;9.118;2023-04-08T02:13:47;5.20;;;3.20;;
8066;SDS011;4076;48.076;9.118;2023-04-08T02:18:38;5.57;;;3.40;;
8066;SDS011;4076;48.076;9.118;2023-04-08T02:23:38;14.53;;;4.27;;
8066;SDS011;4076;48.076;9.118;2023-04-08T02:26:11;10.13;;;6.00;;
8066;SDS011;4076;48.076;9.118;2023-04-08T02:28:38;6.27;;;4.27;;
8066;SDS011;4076;48.076;9.118;2023-04-08T02:31:06;9.40;;;6.23;;
8066;SDS011;4076;48.076;9.118;2023-04-08T02:33:37;5.90;;;3.90;;
8066;SDS011;4076;48.076;9.118;2023-04-08T02:36:04;7.53;;;4.60;;
8066;SDS011;4076;48.076;9.118;2023-04-08T02:38:30;8.43;;;4.50;;
8066;SDS011;4076;48.076;9.118;2023-04-08T02:40:56;6.33;;;3.43;;
8066;SDS011;4076;48.076;9.118;2023-04-08T02:43:22;10.10;;;4.77;;
8066;SDS011;4076;48.076;9.118;2023-04-08T02:45:56;8.07;;;4.57;;
8066;SDS011;4076;48.076;9.118;2023-04-08T02:48:24;6.30;;;4.67;;
8066;SDS011;4076;48.076;9.118;2023-04-08T02:50:49;7.07;;;4.97;;
8066;SDS011;4076;48.076;9.118;2023-04-08T02:53:15;5.90;;;4.07;;
8066;SDS011;4076;48.076;9.118;2023-04-08T02:55:40;4.80;;;3.30;;
8066;SDS011;4076;48.076;9.118;2023-04-08T02:58:06;6.70;;;4.60;;
8066;SDS011;4076;48.076;9.118;2023-04-08T03:00:31;8.03;;;5.17;;
8066;SDS011;4076;48.076;9.118;2023-04-08T03:02:57;6.50;;;3.87;;
8066;SDS011;4076;48.076;9.118;2023-04-08T03:05:22;8.20;;;4.80;;
8066;SDS011;4076;48.076;9.118;2023-04-08T03:07:49;6.13;;;3.93;;
8066;SDS011;4076;48.076;9.118;2023-04-08T03:10:15;9.20;;;5.60;;
8066;SDS011;4076;48.076;9.118;2023-04-08T03:12:40;7.00;;;4.20;;
8066;SDS011;4076;48.076;9.118;2023-04-08T03:15:06;10.43;;;6.97;;
8066;SDS011;4076;48.076;9.118;2023-04-08T03:17:32;8.90;;;5.30;;
8066;SDS011;4076;48.076;9.118;2023-04-08T03:19:58;6.80;;;4.43;;
8066;SDS011;4076;48.076;9.118;2023-04-08T03:22:25;8.47;;;5.30;;
8066;SDS011;4076;48.076;9.118;2023-04-08T03:24:50;9.50;;;5.73;;
8066;SDS011;4076;48.076;9.118;2023-04-08T03:27:16;9.20;;;5.70;;
8066;SDS011;4076;48.076;9.118;2023-04-08T03:29:42;9.97;;;5.73;;
8066;SDS011;4076;48.076;9.118;2023-04-08T03:32:09;10.87;;;6.80;;
8066;SDS011;4076;48.076;9.118;2023-04-08T03:34:35;10.57;;;5.60;;
8066;SDS011;4076;48.076;9.118;2023-04-08T03:37:01;8.70;;;5.73;;
8066;SDS011;4076;48.076;9.118;2023-04-08T03:39:26;7.03;;;5.03;;
8066;SDS011;4076;48.076;9.118;2023-04-08T03:41:52;8.63;;;5.00;;
8066;SDS011;4076;48.076;9.118;2023-04-08T03:44:17;6.90;;;3.97;;
8066;SDS011;4076;48.076;9.118;2023-04-08T03:46:44;8.13;;;5.23;;
8066;SDS011;4076;48.076;9.118;2023-04-08T03:49:09;6.10;;;3.87;;
8066;SDS011;4076;48.076;9.118;2023-04-08T03:51:35;6.77;;;4.10;;
8066;SDS011;4076;48.076;9.118;2023-04-08T03:54:01;8.43;;;4.63;;
8066;SDS011;4076;48.076;9.118;2023-04-08T03:56:26;9.83;;;7.03;;
8066;SDS011;4076;48.076;9.118;2023-04-08T03:58:52;7.80;;;5.47;;
8066;SDS011;4076;48.076;9.118;2023-04-08T04:01:17;10.80;;;6.23;;
8066;SDS011;4076;48.076;9.118;2023-04-08T04:03:43;7.60;;;4.87;;
8066;SDS011;4076;48.076;9.118;2023-04-08T04:06:08;7.40;;;4.73;;
8066;SDS011;4076;48.076;9.118;2023-04-08T04:08:34;12.70;;;6.93;;
8066;SDS011;4076;48.076;9.118;2023-04-08T04:11:00;9.97;;;5.93;;
8066;SDS011;4076;48.076;9.118;2023-04-08T04:13:26;10.63;;;7.37;;
8066;SDS011;4076;48.076;9.118;2023-04-08T04:15:51;9.67;;;6.77;;
8066;SDS011;4076;48.076;9.118;2023-04-08T04:18:17;9.00;;;6.27;;
8066;SDS011;4076;48.076;9.118;2023-04-08T04:20:43;8.33;;;5.60;;
8066;SDS011;4076;48.076;9.118;2023-04-08T04:23:09;7.13;;;4.70;;
8066;SDS011;4076;48.076;9.118;2023-04-08T04:25:34;9.83;;;6.70;;
8066;SDS011;4076;48.076;9.118;2023-04-08T04:28:00;9.47;;;5.60;;
8066;SDS011;4076;48.076;9.118;2023-04-08T04:30:26;9.30;;;5.70;;
8066;SDS011;4076;48.076;9.118;2023-04-08T04:32:52;7.27;;;5.13;;
8066;SDS011;4076;48.076;9.118;2023-04-08T04:35:18;9.90;;;4.93;;
8066;SDS011;4076;48.076;9.118;2023-04-08T04:37:43;7.67;;;4.87;;
8066;SDS011;4076;48.076;9.118;2023-04-08T04:40:09;7.13;;;4.60;;
8066;SDS011;4076;48.076;9.118;2023-04-08T04:42:35;7.23;;;4.57;;
8066;SDS011;4076;48.076;9.118;2023-04-08T04:45:01;7.80;;;4.93;;
8066;SDS011;4076;48.076;9.118;2023-04-08T04:47:26;9.20;;;5.13;;
8066;SDS011;4076;48.076;9.118;2023-04-08T04:49:52;7.10;;;5.20;;
8066;SDS011;4076;48.076;9.118;2023-04-08T04:52:17;7.87;;;4.70;;
8066;SDS011;4076;48.076;9.118;2023-04-08T04:54:43;8.87;;;5.63;;
8066;SDS011;4076;48.076;9.118;2023-04-08T04:57:08;8.90;;;5.67;;
8066;SDS011;4076;48.076;9.118;2023-04-08T04:59:35;12.90;;;7.43;;
8066;SDS011;4076;48.076;9.118;2023-04-08T05:02:01;8.13;;;6.23;;
8066;SDS011;4076;48.076;9.118;2023-04-08T05:04:26;9.90;;;5.73;;
8066;SDS011;4076;48.076;9.118;2023-04-08T05:06:52;11.40;;;6.40;;
8066;SDS011;4076;48.076;9.118;2023-04-08T05:09:17;7.80;;;5.87;;
8066;SDS011;4076;48.076;9.118;2023-04-08T05:11:43;9.90;;;6.30;;
8066;SDS011;4076;48.076;9.118;2023-04-08T05:14:09;13.00;;;7.63;;
8066;SDS011;4076;48.076;9.118;2023-04-08T05:16:34;8.23;;;6.17;;
8066;SDS011;4076;48.076;9.118;2023-04-08T05:19:00;11.97;;;7.73;;
8066;SDS011;4076;48.076;9.118;2023-04-08T05:21:26;9.83;;;6.40;;
8066;SDS011;4076;48.076;9.118;2023-04-08T05:23:52;11.97;;;7.43;;
8066;SDS011;4076;48.076;9.118;2023-04-08T05:26:21;11.40;;;7.63;;
8066;SDS011;4076;48.076;9.118;2023-04-08T05:28:47;10.47;;;6.10;;
8066;SDS011;4076;48.076;9.118;2023-04-08T05:31:17;10.30;;;6.63;;
8066;SDS011;4076;48.076;9.118;2023-04-08T05:33:43;10.40;;;6.40;;
8066;SDS011;4076;48.076;9.118;2023-04-08T05:36:10;15.60;;;9.10;;
8066;SDS011;4076;48.076;9.118;2023-04-08T05:38:36;13.63;;;10.10;;
8066;SDS011;4076;48.076;9.118;2023-04-08T05:41:02;14.50;;;9.10;;
8066;SDS011;4076;48.076;9.118;2023-04-08T05:43:27;10.80;;;6.40;;
8066;SDS011;4076;48.076;9.118;2023-04-08T05:45:53;8.83;;;5.73;;
8066;SDS011;4076;48.076;9.118;2023-04-08T05:48:18;10.47;;;7.77;;
8066;SDS011;4076;48.076;9.118;2023-04-08T05:50:44;13.83;;;8.60;;
8066;SDS011;4076;48.076;9.118;2023-04-08T05:53:12;13.43;;;9.53;;
8066;SDS011;4076;48.076;9.118;2023-04-08T05:55:37;13.70;;;10.03;;
8066;SDS011;4076;48.076;9.118;2023-04-08T05:58:04;15.30;;;9.40;;
8066;SDS011;4076;48.076;9.118;2023-04-08T06:00:29;11.77;;;8.60;;
8066;SDS011;4076;48.076;9.118;2023-04-08T06:02:55;11.13;;;7.87;;
8066;SDS011;4076;48.076;9.118;2023-04-08T06:05:20;12.20;;;7.47;;
8066;SDS011;4076;48.076;9.118;2023-04-08T06:07:46;9.73;;;7.43;;
8066;SDS011;4076;48.076;9.118;2023-04-08T06:10:11;11.90;;;7.60;;
8066;SDS011;4076;48.076;9.118;2023-04-08T06:12:37;10.83;;;7.93;;
8066;SDS011;4076;48.076;9.118;2023-04-08T06:15:04;17.03;;;9.90;;
8066;SDS011;4076;48.076;9.118;2023-04-08T06:17:30;16.23;;;9.13;;
8066;SDS011;4076;48.076;9.118;2023-04-08T06:19:56;19.10;;;12.60;;
8066;SDS011;4076;48.076;9.118;2023-04-08T06:22:21;13.80;;;8.80;;
8066;SDS011;4076;48.076;9.118;2023-04-08T06:24:47;11.73;;;7.23;;
8066;SDS011;4076;48.076;9.118;2023-04-08T06:27:13;8.50;;;6.60;;
8066;SDS011;4076;48.076;9.118;2023-04-08T06:29:38;13.30;;;9.57;;
8066;SDS011;4076;48.076;9.118;2023-04-08T06:32:05;14.70;;;8.30;;
8066;SDS011;4076;48.076;9.118;2023-04-08T06:34:31;16.57;;;12.20;;
8066;SDS011;4076;48.076;9.118;2023-04-08T06:36:56;13.57;;;8.03;;
8066;SDS011;4076;48.076;9.118;2023-04-08T06:39:22;16.07;;;10.43;;
8066;SDS011;4076;48.076;9.118;2023-04-08T06:41:48;17.83;;;10.97;;
8066;SDS011;4076;48.076;9.118;2023-04-08T06:44:13;18.77;;;10.57;;
8066;SDS011;4076;48.076;9.118;2023-04-08T06:46:39;16.27;;;11.40;;
8066;SDS011;4076;48.076;9.118;2023-04-08T06:49:05;17.93;;;13.30;;
8066;SDS011;4076;48.076;9.118;2023-04-08T06:51:31;17.43;;;10.83;;
8066;SDS011;4076;48.076;9.118;2023-04-08T06:53:57;12.87;;;9.97;;
8066;SDS011;4076;48.076;9.118;2023-04-08T06:56:22;21.43;;;13.23;;
8066;SDS011;4076;48.076;9.118;2023-04-08T06:58:50;15.37;;;13.27;;
8066;SDS011;4076;48.076;9.118;2023-04-08T07:01:16;13.50;;;9.67;;
8066;SDS011;4076;48.076;9.118;2023-04-08T07:03:42;16.90;;;11.30;;
8066;SDS011;4076;48.076;9.118;2023-04-08T07:06:07;14.30;;;11.40;;
8066;SDS011;4076;48.076;9.118;2023-04-08T07:08:33;14.43;;;10.03;;
8066;SDS011;4076;48.076;9.118;2023-04-08T07:10:59;14.10;;;10.97;;
8066;SDS011;4076;48.076;9.118;2023-04-08T07:13:24;13.27;;;9.37;;
8066;SDS011;4076;48.076;9.118;2023-04-08T07:15:50;11.67;;;9.30;;
8066;SDS011;4076;48.076;9.118;2023-04-08T07:18:16;9.97;;;8.03;;
8066;SDS011;4076;48.076;9.118;2023-04-08T07:20:41;10.90;;;6.73;;
8066;SDS011;4076;48.076;9.118;2023-04-08T07:23:07;10.77;;;7.30;;
8066;SDS011;4076;48.076;9.118;2023-04-08T07:25:33;9.80;;;7.07;;
8066;SDS011;4076;48.076;9.118;2023-04-08T07:28:01;9.93;;;8.23;;
8066;SDS011;4076;48.076;9.118;2023-04-08T07:30:28;13.10;;;8.23;;
8066;SDS011;4076;48.076;9.118;2023-04-08T07:32:53;8.13;;;6.90;;
8066;SDS011;4076;48.076;9.118;2023-04-08T07:35:19;7.97;;;5.83;;
8066;SDS011;4076;48.076;9.118;2023-04-08T07:37:48;9.80;;;6.60;;
8066;SDS011;4076;48.076;9.118;2023-04-08T07:40:15;14.53;;;10.80;;
8066;SDS011;4076;48.076;9.118;2023-04-08T07:42:41;11.90;;;8.93;;
8066;SDS011;4076;48.076;9.118;2023-04-08T07:45:06;10.13;;;7.23;;
8066;SDS011;4076;48.076;9.118;2023-04-08T07:47:32;10.17;;;8.30;;
8066;SDS011;4076;48.076;9.118;2023-04-08T07:49:58;11.80;;;8.10;;
8066;SDS011;4076;48.076;9.118;2023-04-08T07:52:24;11.70;;;10.30;;
8066;SDS011;4076;48.076;9.118;2023-04-08T07:54:50;11.20;;;7.67;;
8066;SDS011;4076;48.076;9.118;2023-04-08T07:57:15;10.40;;;6.80;;
8066;SDS011;4076;48.076;9.118;2023-04-08T07:59:41;11.20;;;7.80;;
8066;SDS011;4076;48.076;9.118;2023-04-08T08:02:06;9.83;;;6.83;;
8066;SDS011;4076;48.076;9.118;2023-04-08T08:04:32;7.23;;;4.70;;
8066;SDS011;4076;48.076;9.118;2023-04-08T08:06:58;7.03;;;3.90;;
8066;SDS011;4076;48.076;9.118;2023-04-08T08:09:23;6.50;;;3.87;;
8066;SDS011;4076;48.076;9.118;2023-04-08T08:11:49;13.53;;;5.47;;
8066;SDS011;4076;48.076;9.118;2023-04-08T08:14:15;6.53;;;4.10;;
8066;SDS011;4076;48.076;9.118;2023-04-08T08:16:40;10.40;;;4.40;;
8066;SDS011;4076;48.076;9.118;2023-04-08T08:19:06;7.30;;;4.30;;
8066;SDS011;4076;48.076;9.118;2023-04-08T08:21:35;6.60;;;4.30;;
8066;SDS011;4076;48.076;9.118;2023-04-08T08:24:01;6.33;;;4.20;;
8066;SDS011;4076;48.076;9.118;2023-04-08T08:26:27;7.00;;;3.73;;
8066;SDS011;4076;48.076;9.118;2023-04-08T08:28:52;6.30;;;3.90;;
8066;SDS011;4076;48.076;9.118;2023-04-08T08:31:18;7.50;;;4.13;;
8066;SDS011;4076;48.076;9.118;2023-04-08T08:33:44;9.60;;;4.50;;
8066;SDS011;4076;48.076;9.118;2023-04-08T08:36:10;6.83;;;4.50;;
8066;SDS011;4076;48.076;9.118;2023-04-08T08:38:36;11.30;;;7.53;;
8066;SDS011;4076;48.076;9.118;2023-04-08T08:41:02;8.80;;;5.30;;
8066;SDS011;4076;48.076;9.118;2023-04-08T08:43:28;4.90;;;2.80;;
8066;SDS011;4076;48.076;9.118;2023-04-08T08:45:57;6.10;;;3.70;;
8066;SDS011;4076;48.076;9.118;2023-04-08T08:48:23;6.53;;;3.93;;
8066;SDS011;4076;48.076;9.118;2023-04-08T08:50:49;6.47;;;2.97;;
8066;SDS011;4076;48.076;9.118;2023-04-08T08:53:15;5.13;;;2.80;;
8066;SDS011;4076;48.076;9.118;2023-04-08T08:55:40;5.10;;;3.20;;
8066;SDS011;4076;48.076;9.118;2023-04-08T08:58:06;7.00;;;4.10;;
8066;SDS011;4076;48.076;9.118;2023-04-08T09:00:39;3.63;;;2.30;;
8066;SDS011;4076;48.076;9.118;2023-04-08T09:08:31;4.00;;;3.20;;
8066;SDS011;4076;48.076;9.118;2023-04-08T09:11:16;5.80;;;3.97;;
8066;SDS011;4076;48.076;9.118;2023-04-08T09:13:43;4.70;;;2.63;;
8066;SDS011;4076;48.076;9.118;2023-04-08T09:16:11;5.13;;;3.83;;
8066;SDS011;4076;48.076;9.118;2023-04-08T09:18:42;5.57;;;3.07;;
8066;SDS011;4076;48.076;9.118;2023-04-08T09:21:09;5.60;;;3.37;;
8066;SDS011;4076;48.076;9.118;2023-04-08T09:23:40;5.10;;;3.47;;
8066;SDS011;4076;48.076;9.118;2023-04-08T09:26:17;5.80;;;3.30;;
8066;SDS011;4076;48.076;9.118;2023-04-08T09:28:56;4.67;;;3.60;;
8066;SDS011;4076;48.076;9.118;2023-04-08T09:31:42;4.97;;;3.17;;
8066;SDS011;4076;48.076;9.118;2023-04-08T09:34:12;6.17;;;3.63;;
8066;SDS011;4076;48.076;9.118;2023-04-08T09:36:44;6.37;;;3.50;;
8066;SDS011;4076;48.076;9.118;2023-04-08T09:39:10;4.40;;;3.07;;
8066;SDS011;4076;48.076;9.118;2023-04-08T09:41:37;4.13;;;2.73;;
8066;SDS011;4076;48.076;9.118;2023-04-08T09:44:06;6.30;;;3.33;;
8066;SDS011;4076;48.076;9.118;2023-04-08T09:49:26;5.53;;;3.47;;
8066;SDS011;4076;48.076;9.118;2023-04-08T09:52:20;10.20;;;4.97;;
8066;SDS011;4076;48.076;9.118;2023-04-08T09:55:04;6.27;;;4.20;;
8066;SDS011;4076;48.076;9.118;2023-04-08T10:00:12;5.00;;;3.70;;
8066;SDS011;4076;48.076;9.118;2023-04-08T10:02:55;4.90;;;3.80;;
8066;SDS011;4076;48.076;9.118;2023-04-08T10:05:42;4.33;;;2.83;;
8066;SDS011;4076;48.076;9.118;2023-04-08T10:08:09;5.43;;;3.17;;
8066;SDS011;4076;48.076;9.118;2023-04-08T10:10:37;5.30;;;3.33;;
8066;SDS011;4076;48.076;9.118;2023-04-08T10:13:08;6.53;;;3.90;;
8066;SDS011;4076;48.076;9.118;2023-04-08T10:15:34;5.47;;;3.87;;
8066;SDS011;4076;48.076;9.118;2023-04-08T10:23:02;5.23;;;3.70;;
8066;SDS011;4076;48.076;9.118;2023-04-08T10:25:29;6.53;;;4.17;;
8066;SDS011;4076;48.076;9.118;2023-04-08T10:28:00;5.77;;;4.43;;
8066;SDS011;4076;48.076;9.118;2023-04-08T10:30:37;5.07;;;3.07;;
8066;SDS011;4076;48.076;9.118;2023-04-08T10:33:49;6.60;;;4.13;;
8066;SDS011;4076;48.076;9.118;2023-04-08T10:38:36;6.93;;;5.30;;
8066;SDS011;4076;48.076;9.118;2023-04-08T10:41:02;7.40;;;6.07;;
8066;SDS011;4076;48.076;9.118;2023-04-08T10:43:34;5.57;;;4.80;;
8066;SDS011;4076;48.076;9.118;2023-04-08T10:46:01;7.27;;;4.90;;
8066;SDS011;4076;48.076;9.118;2023-04-08T10:48:27;8.77;;;5.50;;
8066;SDS011;4076;48.076;9.118;2023-04-08T10:50:54;6.10;;;4.50;;
8066;SDS011;4076;48.076;9.118;2023-04-08T10:53:27;6.90;;;5.97;;
8066;SDS011;4076;48.076;9.118;2023-04-08T10:56:05;7.90;;;5.53;;
8066;SDS011;4076;48.076;9.118;2023-04-08T10:58:32;8.07;;;6.00;;
8066;SDS011;4076;48.076;9.118;2023-04-08T11:01:05;8.90;;;4.77;;
8066;SDS011;4076;48.076;9.118;2023-04-08T11:03:32;8.33;;;5.70;;
8066;SDS011;4076;48.076;9.118;2023-04-08T11:05:58;9.23;;;6.13;;
8066;SDS011;4076;48.076;9.118;2023-04-08T11:08:28;7.60;;;5.40;;
8066;SDS011;4076;48.076;9.118;2023-04-08T11:10:55;9.60;;;7.73;;
8066;SDS011;4076;48.076;9.118;2023-04-08T11:13:21;7.00;;;6.30;;
8066;SDS011;4076;48.076;9.118;2023-04-08T11:15:47;7.60;;;6.63;;
8066;SDS011;4076;48.076;9.118;2023-04-08T11:18:14;7.70;;;5.77;;
8066;SDS011;4076;48.076;9.118;2023-04-08T11:20:40;9.33;;;8.37;;
8066;SDS011;4076;48.076;9.118;2023-04-08T11:23:15;9.03;;;6.07;;
8066;SDS011;4076;48.076;9.118;2023-04-08T11:25:41;7.73;;;6.80;;
8066;SDS011;4076;48.076;9.118;2023-04-08T11:28:08;8.27;;;5.67;;
8066;SDS011;4076;48.076;9.118;2023-04-08T11:30:34;6.70;;;5.17;;
8066;SDS011;4076;48.076;9.118;2023-04-08T11:33:01;6.00;;;4.40;;
8066;SDS011;4076;48.076;9.118;2023-04-08T11:35:29;8.00;;;6.07;;
8066;SDS011;4076;48.076;9.118;2023-04-08T11:37:56;7.50;;;5.37;;
8066;SDS011;4076;48.076;9.118;2023-04-08T11:40:22;6.40;;;3.97;;
8066;SDS011;4076;48.076;9.118;2023-04-08T11:42:48;8.13;;;4.67;;
8066;SDS011;4076;48.076;9.118;2023-04-08T11:45:16;11.30;;;6.40;;
8066;SDS011;4076;48.076;9.118;2023-04-08T11:47:44;7.27;;;5.67;;
8066;SDS011;4076;48.076;9.118;2023-04-08T11:50:11;8.03;;;6.20;;
8066;SDS011;4076;48.076;9.118;2023-04-08T11:52:54;7.53;;;4.80;;
8066;SDS011;4076;48.076;9.118;2023-04-08T11:55:30;7.27;;;4.73;;
8066;SDS011;4076;48.076;9.118;2023-04-08T11:57:58;7.83;;;5.67;;
8066;SDS011;4076;48.076;9.118;2023-04-08T12:00:27;7.50;;;5.97;;
8066;SDS011;4076;48.076;9.118;2023-04-08T12:02:53;9.63;;;5.57;;
8066;SDS011;4076;48.076;9.118;2023-04-08T12:05:18;7.77;;;5.53;;
8066;SDS011;4076;48.076;9.118;2023-04-08T12:07:45;8.70;;;6.50;;
8066;SDS011;4076;48.076;9.118;2023-04-08T12:10:11;6.33;;;4.90;;
8066;SDS011;4076;48.076;9.118;2023-04-08T12:12:37;9.47;;;6.10;;
8066;SDS011;4076;48.076;9.118;2023-04-08T12:15:03;10.90;;;7.03;;
8066;SDS011;4076;48.076;9.118;2023-04-08T12:17:30;7.93;;;6.33;;
8066;SDS011;4076;48.076;9.118;2023-04-08T12:19:56;8.93;;;6.70;;
8066;SDS011;4076;48.076;9.118;2023-04-08T12:22:21;8.97;;;6.60;;
8066;SDS011;4076;48.076;9.118;2023-04-08T12:24:47;10.50;;;7.50;;
8066;SDS011;4076;48.076;9.118;2023-04-08T12:27:13;11.37;;;8.67;;
8066;SDS011;4076;48.076;9.118;2023-04-08T12:29:38;9.10;;;8.03;;
8066;SDS011;4076;48.076;9.118;2023-04-08T12:32:04;10.73;;;7.70;;
8066;SDS011;4076;48.076;9.118;2023-04-08T12:34:30;9.83;;;7.10;;
8066;SDS011;4076;48.076;9.118;2023-04-08T12:36:56;10.83;;;8.90;;
8066;SDS011;4076;48.076;9.118;2023-04-08T12:39:22;10.20;;;8.87;;
8066;SDS011;4076;48.076;9.118;2023-04-08T12:41:48;9.53;;;8.53;;
8066;SDS011;4076;48.076;9.118;2023-04-08T12:44:14;11.33;;;9.07;;
8066;SDS011;4076;48.076;9.118;2023-04-08T12:46:40;10.13;;;5.80;;
8066;SDS011;4076;48.076;9.118;2023-04-08T12:49:06;11.27;;;7.73;;
8066;SDS011;4076;48.076;9.118;2023-04-08T12:51:31;10.60;;;9.50;;
8066;SDS011;4076;48.076;9.118;2023-04-08T12:53:57;11.23;;;7.43;;
8066;SDS011;4076;48.076;9.118;2023-04-08T12:56:24;11.23;;;9.07;;
8066;SDS011;4076;48.076;9.118;2023-04-08T12:58:50;13.23;;;8.13;;
8066;SDS011;4076;48.076;9.118;2023-04-08T13:01:15;8.77;;;7.43;;
8066;SDS011;4076;48.076;9.118;2023-04-08T13:03:41;11.53;;;8.50;;
8066;SDS011;4076;48.076;9.118;2023-04-08T13:06:06;9.00;;;8.07;;
8066;SDS011;4076;48.076;9.118;2023-04-08T13:08:34;9.60;;;7.40;;
8066;SDS011;4076;48.076;9.118;2023-04-08T13:11:10;12.40;;;8.37;;
8066;SDS011;4076;48.076;9.118;2023-04-08T13:13:40;12.07;;;10.60;;
8066;SDS011;4076;48.076;9.118;2023-04-08T13:16:06;8.43;;;7.63;;
8066;SDS011;4076;48.076;9.118;2023-04-08T13:18:31;6.37;;;5.37;;
8066;SDS011;4076;48.076;9.118;2023-04-08T13:20:57;9.97;;;8.90;;
8066;SDS011;4076;48.076;9.118;2023-04-08T13:23:23;9.97;;;8.30;;
8066;SDS011;4076;48.076;9.118;2023-04-08T13:25:49;11.53;;;10.10;;
8066;SDS011;4076;48.076;9.118;2023-04-08T13:28:15;8.37;;;5.80;;
8066;SDS011;4076;48.076;9.118;2023-04-08T13:30:40;15.20;;;8.97;;
8066;SDS011;4076;48.076;9.118;2023-04-08T13:33:06;12.60;;;9.40;;
8066;SDS011;4076;48.076;9.118;2023-04-08T13:35:32;13.40;;;10.50;;
8066;SDS011;4076;48.076;9.118;2023-04-08T13:37:58;12.90;;;9.30;;
8066;SDS011;4076;48.076;9.118;2023-04-08T13:40:23;11.33;;;10.13;;
8066;SDS011;4076;48.076;9.118;2023-04-08T13:42:49;12.97;;;11.17;;
8066;SDS011;4076;48.076;9.118;2023-04-08T13:45:14;10.70;;;9.37;;
8066;SDS011;4076;48.076;9.118;2023-04-08T13:47:40;14.80;;;11.33;;
8066;SDS011;4076;48.076;9.118;2023-04-08T13:50:06;17.87;;;11.00;;
8066;SDS011;4076;48.076;9.118;2023-04-08T13:52:32;11.47;;;9.60;;
8066;SDS011;4076;48.076;9.118;2023-04-08T13:54:58;12.93;;;10.17;;
8066;SDS011;4076;48.076;9.118;2023-04-08T13:57:23;9.97;;;8.73;;
8066;SDS011;4076;48.076;9.118;2023-04-08T13:59:49;11.67;;;9.80;;
8066;SDS011;4076;48.076;9.118;2023-04-08T14:02:15;13.60;;;10.03;;
8066;SDS011;4076;48.076;9.118;2023-04-08T14:04:40;9.53;;;6.70;;
8066;SDS011;4076;48.076;9.118;2023-04-08T14:07:08;10.53;;;8.90;;
8066;SDS011;4076;48.076;9.118;2023-04-08T14:09:34;11.20;;;8.57;;
8066;SDS011;4076;48.076;9.118;2023-04-08T14:11:59;11.00;;;9.50;;
8066;SDS011;4076;48.076;9.118;2023-04-08T14:14:25;11.27;;;9.50;;
8066;SDS011;4076;48.076;9.118;2023-04-08T14:16:51;24.37;;;22.00;;
8066;SDS011;4076;48.076;9.118;2023-04-08T14:19:17;17.37;;;15.77;;
8066;SDS011;4076;48.076;9.118;2023-04-08T14:21:42;16.77;;;14.40;;
8066;SDS011;4076;48.076;9.118;2023-04-08T14:24:08;14.37;;;12.20;;
8066;SDS011;4076;48.076;9.118;2023-04-08T14:26:33;12.40;;;10.97;;
8066;SDS011;4076;48.076;9.118;2023-04-08T14:29:03;14.77;;;12.87;;
8066;SDS011;4076;48.076;9.118;2023-04-08T14:31:30;11.40;;;9.53;;
8066;SDS011;4076;48.076;9.118;2023-04-08T14:33:57;16.90;;;11.20;;
8066;SDS011;4076;48.076;9.118;2023-04-08T14:36:23;11.33;;;10.10;;
8066;SDS011;4076;48.076;9.118;2023-04-08T14:38:50;13.50;;;9.50;;
8066;SDS011;4076;48.076;9.118;2023-04-08T14:41:15;10.33;;;8.30;;
8066;SDS011;4076;48.076;9.118;2023-04-08T14:43:41;14.37;;;11.53;;
8066;SDS011;4076;48.076;9.118;2023-04-08T14:46:07;14.37;;;11.43;;
8066;SDS011;4076;48.076;9.118;2023-04-08T14:48:32;12.97;;;10.10;;
8066;SDS011;4076;48.076;9.118;2023-04-08T14:50:58;12.50;;;11.20;;
8066;SDS011;4076;48.076;9.118;2023-04-08T14:53:24;10.87;;;8.80;;
8066;SDS011;4076;48.076;9.118;2023-04-08T14:55:50;9.60;;;8.60;;
8066;SDS011;4076;48.076;9.118;2023-04-08T14:58:16;14.87;;;11.10;;
8066;SDS011;4076;48.076;9.118;2023-04-08T15:00:41;12.70;;;10.03;;
8066;SDS011;4076;48.076;9.118;2023-04-08T15:03:15;11.07;;;9.47;;
8066;SDS011;4076;48.076;9.118;2023-04-08T15:05:41;15.43;;;10.37;;
8066;SDS011;4076;48.076;9.118;2023-04-08T15:08:08;13.53;;;10.00;;
8066;SDS011;4076;48.076;9.118;2023-04-08T15:10:34;17.70;;;12.40;;
8066;SDS011;4076;48.076;9.118;2023-04-08T15:13:00;10.83;;;9.73;;
8066;SDS011;4076;48.076;9.118;2023-04-08T15:15:26;12.40;;;10.50;;
8066;SDS011;4076;48.076;9.118;2023-04-08T15:17:51;14.27;;;10.27;;
8066;SDS011;4076;48.076;9.118;2023-04-08T15:20:17;11.90;;;10.10;;
8066;SDS011;4076;48.076;9.118;2023-04-08T15:22:44;14.33;;;12.10;;
8066;SDS011;4076;48.076;9.118;2023-04-08T15:25:09;15.50;;;12.60;;
8066;SDS011;4076;48.076;9.118;2023-04-08T15:27:35;12.70;;;10.97;;
8066;SDS011;4076;48.076;9.118;2023-04-08T15:30:01;14.87;;;12.43;;
8066;SDS011;4076;48.076;9.118;2023-04-08T15:32:28;16.43;;;13.40;;
8066;SDS011;4076;48.076;9.118;2023-04-08T15:34:53;14.43;;;12.00;;